Time;durP1;ratioP1;P1;durP2;ratioP2;P2;SDS_P1;SDS_P2;PMS_P1;PMS_P2;Temp;Humidity;BMP_temperature;BMP_pressure;BME280_temperature;BME280_humidity;BME280_pressure;Samples;Min_cycle;Max_cycle;Signal;HPM_P1;HPM_P2
2021/03/19 00:00:52;;;;;;;6.23;2.97;;;;;;;;;;5036268;28;20213;-68
2021/03/19 00:03:17;;;;;;;7.57;3.63;;;;;;;;;;5032973;28;20255;-68
2021/03/19 00:05:42;;;;;;;6.17;3.20;;;;;;;;;;5040913;28;20578;-69
2021/03/19 00:08:07;;;;;;;6.87;3.50;;;;;;;;;;5043860;28;20180;-68
2021/03/19 00:10:33;;;;;;;8.53;4.03;;;;;;;;;;5037286;28;20621;-68
2021/03/19 00:13:01;;;;;;;9.03;3.70;;;;;;;;;;5040260;28;20204;-68
2021/03/19 00:15:27;;;;;;;6.23;3.33;;;;;;;;;;5033731;28;20636;-67
2021/03/19 00:17:52;;;;;;;5.10;3.30;;;;;;;;;;5046214;28;20264;-68
2021/03/19 00:20:17;;;;;;;5.57;3.50;;;;;;;;;;5045143;28;20232;-68
2021/03/19 00:22:43;;;;;;;7.27;3.93;;;;;;;;;;5046186;28;20248;-68
2021/03/19 00:25:09;;;;;;;4.33;3.17;;;;;;;;;;5043633;28;20277;-68
2021/03/19 00:27:34;;;;;;;3.93;3.07;;;;;;;;;;5045203;28;20227;-68
2021/03/19 00:29:59;;;;;;;7.13;3.50;;;;;;;;;;5048228;28;20264;-68
2021/03/19 00:32:25;;;;;;;7.83;4.13;;;;;;;;;;5047759;28;20194;-68
2021/03/19 00:34:50;;;;;;;4.70;3.70;;;;;;;;;;5048170;28;20166;-69
2021/03/19 00:37:15;;;;;;;6.17;4.03;;;;;;;;;;5046768;28;20535;-69
2021/03/19 00:39:40;;;;;;;9.30;4.33;;;;;;;;;;5049074;28;20284;-68
2021/03/19 00:42:06;;;;;;;7.17;4.00;;;;;;;;;;5047097;28;20251;-69
2021/03/19 00:44:31;;;;;;;13.90;5.23;;;;;;;;;;5047392;28;20216;-68
2021/03/19 00:46:56;;;;;;;6.27;3.97;;;;;;;;;;5052924;28;20551;-70
2021/03/19 00:49:22;;;;;;;7.37;4.20;;;;;;;;;;5050889;28;20197;-68
2021/03/19 00:51:47;;;;;;;6.60;3.53;;;;;;;;;;5054638;28;20173;-69
2021/03/19 00:54:12;;;;;;;5.20;4.00;;;;;;;;;;5049645;28;20169;-69
2021/03/19 00:56:37;;;;;;;7.10;4.07;;;;;;;;;;5047905;28;20260;-68
2021/03/19 00:59:06;;;;;;;7.73;4.50;;;;;;;;;;5048056;28;20192;-68
2021/03/19 01:01:31;;;;;;;5.50;3.97;;;;;;;;;;5047306;28;20638;-68
2021/03/19 01:03:57;;;;;;;7.27;4.70;;;;;;;;;;5047149;28;20201;-68
2021/03/19 01:06:22;;;;;;;5.83;4.17;;;;;;;;;;5054175;28;20237;-68
2021/03/19 01:08:47;;;;;;;9.80;4.40;;;;;;;;;;5049981;28;20177;-69
2021/03/19 01:11:12;;;;;;;7.97;5.07;;;;;;;;;;5053220;28;20185;-68
2021/03/19 01:13:37;;;;;;;6.60;4.50;;;;;;;;;;5048054;28;20530;-68
2021/03/19 01:16:03;;;;;;;6.93;4.80;;;;;;;;;;5058099;28;20181;-68
2021/03/19 01:18:29;;;;;;;7.13;4.30;;;;;;;;;;5043148;28;20177;-69
2021/03/19 01:20:54;;;;;;;9.37;4.47;;;;;;;;;;5049552;28;20752;-68
2021/03/19 01:23:19;;;;;;;8.37;5.13;;;;;;;;;;5052531;28;20181;-68
2021/03/19 01:25:44;;;;;;;5.60;4.43;;;;;;;;;;5052333;28;20198;-69
2021/03/19 01:28:10;;;;;;;7.27;4.37;;;;;;;;;;5049546;28;20224;-68
2021/03/19 01:30:39;;;;;;;5.57;4.97;;;;;;;;;;5051160;28;20185;-68
2021/03/19 01:33:04;;;;;;;7.33;3.87;;;;;;;;;;5050084;28;20182;-68
2021/03/19 01:35:31;;;;;;;6.50;4.77;;;;;;;;;;5047937;28;20182;-68
2021/03/19 01:37:56;;;;;;;8.40;5.07;;;;;;;;;;5051556;28;20203;-68
2021/03/19 01:40:23;;;;;;;8.47;4.30;;;;;;;;;;5049420;28;20585;-68
2021/03/19 01:42:48;;;;;;;6.67;4.87;;;;;;;;;;5051763;28;20174;-67
2021/03/19 01:45:40;;;;;;;8.07;5.15;;;;;;;;;;5048152;28;20184;-68
2021/03/19 01:48:23;;;;;;;7.70;4.93;;;;;;;;;;5050202;28;20186;-68
2021/03/19 01:51:07;;;;;;;11.73;5.33;;;;;;;;;;5046261;28;20206;-68
2021/03/19 01:53:51;;;;;;;6.60;4.70;;;;;;;;;;5048130;28;20173;-69
2021/03/19 01:56:34;;;;;;;6.47;4.63;;;;;;;;;;5046777;28;20204;-68
2021/03/19 01:59:18;;;;;;;8.37;4.70;;;;;;;;;;5047576;28;20198;-68
2021/03/19 02:02:02;;;;;;;6.50;4.70;;;;;;;;;;5049736;28;20181;-68
2021/03/19 02:04:45;;;;;;;7.57;5.57;;;;;;;;;;5048365;28;20177;-69
2021/03/19 02:07:29;;;;;;;8.60;5.20;;;;;;;;;;5046405;28;20216;-69
2021/03/19 02:10:13;;;;;;;7.80;5.57;;;;;;;;;;5050537;28;20197;-67
2021/03/19 02:12:56;;;;;;;6.43;4.83;;;;;;;;;;5048001;28;20182;-69
2021/03/19 02:15:40;;;;;;;10.27;4.50;;;;;;;;;;5051565;28;20182;-68
2021/03/19 02:18:24;;;;;;;8.40;5.23;;;;;;;;;;5052090;28;20177;-68
2021/03/19 02:21:08;;;;;;;9.00;5.60;;;;;;;;;;5049255;28;20584;-68
2021/03/19 02:23:52;;;;;;;10.47;4.87;;;;;;;;;;5045705;28;20177;-68
2021/03/19 02:26:35;;;;;;;6.03;4.37;;;;;;;;;;5046692;28;20670;-68
2021/03/19 02:29:19;;;;;;;9.63;6.73;;;;;;;;;;5046103;28;20185;-68
2021/03/19 02:31:54;;;;;;;8.13;4.83;;;;;;;;;;5052211;28;20193;-68
2021/03/19 02:34:20;;;;;;;10.77;5.30;;;;;;;;;;5049439;28;20539;-68
2021/03/19 02:36:45;;;;;;;7.03;4.90;;;;;;;;;;5051801;28;20266;-69
2021/03/19 02:39:10;;;;;;;9.90;5.53;;;;;;;;;;5049506;28;20676;-68
2021/03/19 02:41:36;;;;;;;9.27;5.50;;;;;;;;;;5048234;28;20200;-69
2021/03/19 02:44:01;;;;;;;9.53;5.53;;;;;;;;;;5044981;28;20295;-68
2021/03/19 02:46:26;;;;;;;9.80;5.07;;;;;;;;;;5048407;28;20209;-68
2021/03/19 02:48:52;;;;;;;9.27;5.10;;;;;;;;;;5048675;28;20182;-68
2021/03/19 02:51:17;;;;;;;9.87;5.23;;;;;;;;;;5041407;28;20205;-68
2021/03/19 02:53:42;;;;;;;10.50;5.03;;;;;;;;;;5049661;28;20643;-68
2021/03/19 02:56:08;;;;;;;9.07;5.27;;;;;;;;;;5046438;28;20189;-68
2021/03/19 02:58:33;;;;;;;10.70;5.30;;;;;;;;;;5045701;28;20190;-68
2021/03/19 03:00:58;;;;;;;11.90;5.47;;;;;;;;;;5048156;28;20677;-68
2021/03/19 03:03:23;;;;;;;8.70;5.53;;;;;;;;;;5043738;28;20186;-68
2021/03/19 03:05:49;;;;;;;9.87;5.13;;;;;;;;;;5044165;28;20247;-68
2021/03/19 03:08:16;;;;;;;10.53;5.70;;;;;;;;;;5045518;28;20553;-68
2021/03/19 03:10:41;;;;;;;7.13;4.90;;;;;;;;;;5051107;28;20231;-67
2021/03/19 03:13:07;;;;;;;11.83;5.60;;;;;;;;;;5047993;28;20609;-68
2021/03/19 03:15:33;;;;;;;8.73;5.10;;;;;;;;;;5048199;28;20178;-68
2021/03/19 03:17:58;;;;;;;9.53;5.40;;;;;;;;;;5052739;28;20173;-68
2021/03/19 03:20:26;;;;;;;8.40;5.33;;;;;;;;;;5049905;28;20205;-68
2021/03/19 03:22:51;;;;;;;13.23;5.57;;;;;;;;;;5050968;28;20181;-68
2021/03/19 03:25:17;;;;;;;13.53;6.13;;;;;;;;;;5048390;28;20181;-67
2021/03/19 03:27:43;;;;;;;9.33;4.80;;;;;;;;;;5051557;28;20279;-67
2021/03/19 03:30:11;;;;;;;9.57;5.47;;;;;;;;;;5050691;28;20265;-67
2021/03/19 03:32:36;;;;;;;8.90;5.50;;;;;;;;;;5051494;28;20203;-67
2021/03/19 03:35:02;;;;;;;16.20;6.10;;;;;;;;;;5042297;28;20169;-68
2021/03/19 03:37:27;;;;;;;15.83;6.20;;;;;;;;;;5047619;28;20182;-67
2021/03/19 03:39:52;;;;;;;12.00;5.93;;;;;;;;;;5050185;28;20198;-67
2021/03/19 03:42:17;;;;;;;10.03;5.67;;;;;;;;;;5043396;28;20215;-67
2021/03/19 03:44:43;;;;;;;11.77;5.70;;;;;;;;;;5047602;28;20272;-68
2021/03/19 03:47:08;;;;;;;8.07;5.67;;;;;;;;;;5047726;28;20201;-67
2021/03/19 03:49:33;;;;;;;11.70;5.73;;;;;;;;;;5048577;28;20224;-68
2021/03/19 03:51:58;;;;;;;10.20;5.23;;;;;;;;;;5048621;28;20178;-68
2021/03/19 03:54:23;;;;;;;12.93;6.67;;;;;;;;;;5048344;28;20205;-68
2021/03/19 03:56:49;;;;;;;11.20;5.90;;;;;;;;;;5049042;28;20666;-68
2021/03/19 03:59:14;;;;;;;12.73;5.80;;;;;;;;;;5049504;28;20193;-67
2021/03/19 04:01:40;;;;;;;11.43;5.37;;;;;;;;;;5048946;28;20187;-68
2021/03/19 04:04:06;;;;;;;16.97;5.90;;;;;;;;;;5047315;28;20177;-67
2021/03/19 04:06:31;;;;;;;13.60;5.63;;;;;;;;;;5048406;28;20209;-68
2021/03/19 04:08:56;;;;;;;11.97;5.53;;;;;;;;;;5049174;28;20601;-68
2021/03/19 04:11:22;;;;;;;10.47;5.20;;;;;;;;;;5047618;28;20170;-67
2021/03/19 04:13:48;;;;;;;9.93;5.90;;;;;;;;;;5046193;28;20189;-68
2021/03/19 04:16:13;;;;;;;9.50;5.47;;;;;;;;;;5046200;28;20184;-68
2021/03/19 04:18:38;;;;;;;12.70;4.87;;;;;;;;;;5044951;28;20177;-68
2021/03/19 04:21:08;;;;;;;9.37;5.00;;;;;;;;;;5049365;28;20216;-68
2021/03/19 04:23:34;;;;;;;10.53;4.83;;;;;;;;;;5050309;28;20204;-67
2021/03/19 04:25:59;;;;;;;11.60;5.77;;;;;;;;;;5053096;28;20198;-68
2021/03/19 04:28:35;;;;;;;10.47;5.77;;;;;;;;;;5054249;28;20664;-67
2021/03/19 04:31:00;;;;;;;8.40;4.70;;;;;;;;;;5049521;28;20201;-68
2021/03/19 04:33:26;;;;;;;10.77;5.30;;;;;;;;;;5049949;28;20348;-68
2021/03/19 04:35:57;;;;;;;10.77;4.90;;;;;;;;;;5052819;28;20231;-68
2021/03/19 04:38:22;;;;;;;15.07;5.83;;;;;;;;;;5053607;28;20178;-68
2021/03/19 04:40:48;;;;;;;13.53;5.93;;;;;;;;;;5052400;28;20208;-68
2021/03/19 04:43:13;;;;;;;12.63;5.90;;;;;;;;;;5046795;28;20178;-68
2021/03/19 04:45:39;;;;;;;11.03;5.93;;;;;;;;;;5044711;28;20191;-68
2021/03/19 04:48:05;;;;;;;9.87;5.67;;;;;;;;;;5054874;28;20166;-68
2021/03/19 04:50:30;;;;;;;19.07;7.33;;;;;;;;;;5051352;28;20961;-68
2021/03/19 04:52:55;;;;;;;9.43;6.60;;;;;;;;;;5054435;28;20220;-68
2021/03/19 04:55:20;;;;;;;13.97;5.73;;;;;;;;;;5047465;28;20182;-68
2021/03/19 04:57:45;;;;;;;12.40;5.77;;;;;;;;;;5048934;28;20290;-68
2021/03/19 05:00:12;;;;;;;17.83;6.07;;;;;;;;;;5047132;28;20193;-67
2021/03/19 05:02:41;;;;;;;11.20;6.17;;;;;;;;;;5045101;28;20186;-68
2021/03/19 05:05:08;;;;;;;11.43;6.30;;;;;;;;;;5050426;28;20260;-68
2021/03/19 05:07:33;;;;;;;11.73;5.50;;;;;;;;;;5053191;28;20204;-68
2021/03/19 05:09:58;;;;;;;13.00;5.93;;;;;;;;;;5049108;28;20259;-68
2021/03/19 05:12:24;;;;;;;14.87;5.97;;;;;;;;;;5045910;28;20189;-67
2021/03/19 05:14:49;;;;;;;14.37;6.17;;;;;;;;;;5051401;28;20554;-68
2021/03/19 05:17:14;;;;;;;16.13;5.77;;;;;;;;;;5051082;28;20174;-68
2021/03/19 05:19:40;;;;;;;13.97;6.40;;;;;;;;;;5049886;28;20255;-68
2021/03/19 05:22:05;;;;;;;11.17;7.23;;;;;;;;;;5042899;28;20202;-68
2021/03/19 05:24:30;;;;;;;18.20;5.90;;;;;;;;;;5050579;28;20193;-67
2021/03/19 05:26:55;;;;;;;13.40;6.10;;;;;;;;;;5052376;28;20248;-68
2021/03/19 05:29:21;;;;;;;10.47;6.93;;;;;;;;;;5054118;28;20197;-67
2021/03/19 05:31:46;;;;;;;15.53;6.67;;;;;;;;;;5049957;28;20235;-68
2021/03/19 05:34:11;;;;;;;11.70;7.20;;;;;;;;;;5040770;28;20648;-67
2021/03/19 05:36:37;;;;;;;12.53;6.23;;;;;;;;;;5051604;28;20205;-69
2021/03/19 05:39:04;;;;;;;15.13;6.53;;;;;;;;;;5052137;28;20268;-67
2021/03/19 05:41:30;;;;;;;13.60;7.17;;;;;;;;;;5050421;28;20181;-67
2021/03/19 05:44:00;;;;;;;15.03;7.40;;;;;;;;;;5052097;28;20667;-68
2021/03/19 05:46:33;;;;;;;15.97;8.33;;;;;;;;;;5052602;28;20220;-68
2021/03/19 05:49:00;;;;;;;15.30;7.33;;;;;;;;;;5048429;28;20619;-67
2021/03/19 05:51:32;;;;;;;17.70;7.03;;;;;;;;;;5050342;28;20186;-68
2021/03/19 05:54:17;;;;;;;14.97;7.10;;;;;;;;;;5045174;28;20178;-68
2021/03/19 05:56:43;;;;;;;14.73;6.10;;;;;;;;;;5049274;28;20193;-67
2021/03/19 05:59:08;;;;;;;15.17;6.87;;;;;;;;;;5052171;28;20185;-68
2021/03/19 06:01:34;;;;;;;16.50;7.90;;;;;;;;;;5050044;28;20190;-67
2021/03/19 06:04:00;;;;;;;15.17;7.43;;;;;;;;;;5041750;28;20277;-68
2021/03/19 06:06:45;;;;;;;17.33;7.33;;;;;;;;;;5050633;28;20284;-68
2021/03/19 06:09:24;;;;;;;18.00;7.63;;;;;;;;;;5051699;28;20674;-67
2021/03/19 06:11:50;;;;;;;15.70;6.67;;;;;;;;;;5048167;28;20174;-66
2021/03/19 06:14:17;;;;;;;16.13;7.17;;;;;;;;;;5053471;28;20218;-66
2021/03/19 06:16:49;;;;;;;16.60;7.37;;;;;;;;;;5047132;28;20186;-67
2021/03/19 06:19:26;;;;;;;13.43;6.70;;;;;;;;;;5052797;28;20240;-66
2021/03/19 06:22:10;;;;;;;17.40;7.13;;;;;;;;;;5047888;28;20263;-67
2021/03/19 06:24:36;;;;;;;11.87;6.57;;;;;;;;;;5052696;28;20177;-67
2021/03/19 06:27:19;;;;;;;11.03;6.50;;;;;;;;;;5050957;28;20216;-67
2021/03/19 06:29:49;;;;;;;15.07;6.27;;;;;;;;;;5049672;28;20335;-67
2021/03/19 06:32:20;;;;;;;14.30;6.87;;;;;;;;;;5050124;28;20655;-67
2021/03/19 06:35:06;;;;;;;12.07;6.50;;;;;;;;;;5051856;28;20197;-66
2021/03/19 06:37:34;;;;;;;15.60;6.73;;;;;;;;;;5043825;28;20583;-65
2021/03/19 06:40:01;;;;;;;14.07;6.77;;;;;;;;;;5045992;28;20205;-67
2021/03/19 06:42:28;;;;;;;13.63;6.23;;;;;;;;;;5046742;28;20257;-67
2021/03/19 06:45:06;;;;;;;9.97;5.63;;;;;;;;;;5048646;28;20174;-68
2021/03/19 06:47:42;;;;;;;9.53;5.20;;;;;;;;;;5049987;28;20573;-68
2021/03/19 06:50:11;;;;;;;8.47;5.40;;;;;;;;;;5046020;28;20197;-68
2021/03/19 06:52:36;;;;;;;9.43;5.53;;;;;;;;;;5050121;28;20173;-67
2021/03/19 06:55:03;;;;;;;11.83;5.30;;;;;;;;;;5052098;28;20177;-66
2021/03/19 06:57:42;;;;;;;10.60;5.13;;;;;;;;;;5045439;28;20185;-66
2021/03/19 07:00:08;;;;;;;11.93;4.57;;;;;;;;;;5045235;28;20200;-68
2021/03/19 07:02:44;;;;;;;16.87;4.20;;;;;;;;;;5043331;28;20186;-66
2021/03/19 07:05:22;;;;;;;8.40;4.90;;;;;;;;;;5040293;28;20189;-67
2021/03/19 07:08:02;;;;;;;9.13;3.90;;;;;;;;;;5037053;28;20242;-68
2021/03/19 07:10:42;;;;;;;12.80;5.07;;;;;;;;;;5037262;28;20197;-68
2021/03/19 07:13:07;;;;;;;11.23;4.87;;;;;;;;;;5042506;28;20565;-67
2021/03/19 07:15:51;;;;;;;10.50;4.57;;;;;;;;;;5033109;28;20182;-67
2021/03/19 07:18:31;;;;;;;8.70;3.90;;;;;;;;;;5037271;28;20178;-68
2021/03/19 07:21:16;;;;;;;7.67;4.47;;;;;;;;;;5034938;28;20704;-67
2021/03/19 07:23:44;;;;;;;10.57;4.20;;;;;;;;;;5043662;28;20284;-67
2021/03/19 07:26:17;;;;;;;11.33;4.63;;;;;;;;;;5038430;28;20301;-67
2021/03/19 07:29:01;;;;;;;9.30;4.27;;;;;;;;;;5046581;28;20185;-68
2021/03/19 07:31:32;;;;;;;11.43;4.63;;;;;;;;;;5045957;28;20276;-68
2021/03/19 07:34:00;;;;;;;10.43;4.50;;;;;;;;;;5049121;28;20553;-67
2021/03/19 07:36:34;;;;;;;9.57;5.53;;;;;;;;;;5046200;28;20200;-68
2021/03/19 07:39:07;;;;;;;12.03;3.43;;;;;;;;;;5050687;28;20223;-66
2021/03/19 07:41:41;;;;;;;9.33;5.60;;;;;;;;;;5042227;28;20177;-68
2021/03/19 07:44:38;;;;;;;11.17;3.37;;;;;;;;;;5039788;28;20257;-66
2021/03/19 07:47:13;;;;;;;9.37;3.80;;;;;;;;;;5038535;28;20225;-68
2021/03/19 07:49:41;;;;;;;10.73;4.53;;;;;;;;;;5036211;28;20226;-67
2021/03/19 07:52:22;;;;;;;10.67;3.87;;;;;;;;;;5044918;28;20192;-67
2021/03/19 07:54:59;;;;;;;5.13;3.60;;;;;;;;;;5027434;28;20186;-67
2021/03/19 07:57:27;;;;;;;7.77;3.57;;;;;;;;;;5022755;28;20264;-67
2021/03/19 07:59:57;;;;;;;9.37;3.90;;;;;;;;;;5034653;28;20205;-67
2021/03/19 08:02:41;;;;;;;5.17;3.10;;;;;;;;;;5039724;28;20194;-68
2021/03/19 08:05:22;;;;;;;7.73;3.80;;;;;;;;;;5047568;28;20706;-67
2021/03/19 08:07:47;;;;;;;9.03;3.50;;;;;;;;;;5042169;28;20596;-67
2021/03/19 08:10:23;;;;;;;5.68;3.90;;;;;;;;;;5025927;28;20210;-66
2021/03/19 08:12:52;;;;;;;5.63;3.37;;;;;;;;;;5022809;28;20193;-65
2021/03/19 08:15:35;;;;;;;6.13;3.37;;;;;;;;;;5032818;28;20186;-67
2021/03/19 08:18:12;;;;;;;10.87;3.97;;;;;;;;;;5025859;28;20178;-67
2021/03/19 08:20:40;;;;;;;6.07;3.30;;;;;;;;;;5028162;28;20194;-67
2021/03/19 08:23:05;;;;;;;8.23;3.30;;;;;;;;;;5025277;28;20808;-66
2021/03/19 08:25:40;;;;;;;5.43;3.50;;;;;;;;;;5023539;28;20174;-67
2021/03/19 08:28:13;;;;;;;6.83;2.80;;;;;;;;;;5022993;28;20655;-67
2021/03/19 08:30:44;;;;;;;11.23;3.90;;;;;;;;;;5025237;28;20202;-67
2021/03/19 08:33:13;;;;;;;4.67;2.87;;;;;;;;;;5024785;28;20678;-67
2021/03/19 08:35:38;;;;;;;6.53;3.40;;;;;;;;;;5032112;28;20174;-66
2021/03/19 08:38:09;;;;;;;8.13;3.03;;;;;;;;;;5025839;28;20184;-67
2021/03/19 08:40:37;;;;;;;8.00;3.10;;;;;;;;;;5027313;28;20261;-68
2021/03/19 08:43:05;;;;;;;9.00;3.53;;;;;;;;;;5022903;28;20213;-67
2021/03/19 08:45:31;;;;;;;8.83;4.10;;;;;;;;;;5026977;28;20182;-67
2021/03/19 08:47:58;;;;;;;13.87;4.93;;;;;;;;;;5023448;28;20626;-68
2021/03/19 08:50:26;;;;;;;5.20;4.07;;;;;;;;;;5029776;28;20193;-67
2021/03/19 08:53:03;;;;;;;6.07;3.80;;;;;;;;;;5023605;28;20182;-67
2021/03/19 08:55:29;;;;;;;6.97;3.47;;;;;;;;;;5029073;28;21918;-66
2021/03/19 08:57:56;;;;;;;6.80;4.13;;;;;;;;;;5024058;28;20182;-67
2021/03/19 09:00:21;;;;;;;7.37;3.57;;;;;;;;;;5022042;28;20215;-66
2021/03/19 09:02:49;;;;;;;7.73;3.97;;;;;;;;;;5030783;28;20563;-67
2021/03/19 09:05:16;;;;;;;6.37;3.40;;;;;;;;;;5033102;28;20718;-67
2021/03/19 09:08:00;;;;;;;5.20;2.73;;;;;;;;;;5026989;28;20260;-66
2021/03/19 09:10:26;;;;;;;4.57;2.60;;;;;;;;;;5027455;28;20206;-68
2021/03/19 09:12:57;;;;;;;3.47;2.47;;;;;;;;;;5033608;28;20177;-67
2021/03/19 09:15:23;;;;;;;7.67;3.23;;;;;;;;;;5033193;28;20428;-67
2021/03/19 09:17:50;;;;;;;4.77;2.57;;;;;;;;;;5030759;28;20182;-67
2021/03/19 09:20:24;;;;;;;8.23;2.37;;;;;;;;;;5036787;28;20251;-67
2021/03/19 09:23:10;;;;;;;7.53;3.20;;;;;;;;;;5051294;28;20183;-68
2021/03/19 09:25:53;;;;;;;5.53;2.53;;;;;;;;;;5031305;28;20778;-68
2021/03/19 09:28:31;;;;;;;7.27;3.00;;;;;;;;;;5026976;28;20281;-66
2021/03/19 09:31:01;;;;;;;4.77;2.47;;;;;;;;;;5025720;28;20198;-67
2021/03/19 09:33:48;;;;;;;6.60;3.00;;;;;;;;;;5024857;28;20197;-68
2021/03/19 09:36:32;;;;;;;4.37;2.87;;;;;;;;;;5035322;28;20177;-67
2021/03/19 09:38:57;;;;;;;3.67;2.40;;;;;;;;;;5024757;28;20273;-67
2021/03/19 09:41:51;;;;;;;4.30;2.40;;;;;;;;;;5028881;28;20811;-67
2021/03/19 09:44:28;;;;;;;2.67;2.07;;;;;;;;;;5027663;28;20294;-67
2021/03/19 09:46:59;;;;;;;4.37;2.40;;;;;;;;;;5025637;28;20213;-68
2021/03/19 09:49:26;;;;;;;4.47;2.23;;;;;;;;;;5023607;28;20194;-68
2021/03/19 09:51:51;;;;;;;6.80;3.13;;;;;;;;;;5029380;28;20671;-67
2021/03/19 09:54:25;;;;;;;4.30;2.60;;;;;;;;;;5027620;28;20181;-67
2021/03/19 09:56:53;;;;;;;4.13;2.93;;;;;;;;;;5037566;28;20201;-67
2021/03/19 09:59:23;;;;;;;3.60;2.67;;;;;;;;;;5028027;28;20213;-66
2021/03/19 10:01:49;;;;;;;6.73;2.70;;;;;;;;;;5029092;28;20269;-67
2021/03/19 10:04:29;;;;;;;4.93;2.27;;;;;;;;;;5026756;28;20192;-68
2021/03/19 10:06:54;;;;;;;4.80;2.63;;;;;;;;;;5031401;28;20248;-67
2021/03/19 10:09:21;;;;;;;5.13;2.73;;;;;;;;;;5029983;28;20293;-67
2021/03/19 10:12:01;;;;;;;3.13;2.80;;;;;;;;;;5036469;28;20197;-67
2021/03/19 10:14:28;;;;;;;4.00;2.73;;;;;;;;;;5031943;28;20189;-66
2021/03/19 10:17:23;;;;;;;2.93;1.93;;;;;;;;;;5029674;28;20261;-68
2021/03/19 10:19:50;;;;;;;3.00;2.33;;;;;;;;;;5025288;28;20221;-68
2021/03/19 10:22:29;;;;;;;2.63;2.43;;;;;;;;;;5029628;28;20178;-68
2021/03/19 10:24:54;;;;;;;4.50;2.57;;;;;;;;;;5028850;28;20185;-68
2021/03/19 10:27:20;;;;;;;3.47;2.10;;;;;;;;;;5031455;28;20686;-67
2021/03/19 10:29:47;;;;;;;3.73;2.60;;;;;;;;;;5030007;28;20201;-68
2021/03/19 10:32:16;;;;;;;4.13;2.60;;;;;;;;;;5028487;28;20204;-68
2021/03/19 10:34:48;;;;;;;5.10;2.30;;;;;;;;;;5026377;28;20194;-68
2021/03/19 10:37:22;;;;;;;3.57;2.17;;;;;;;;;;5035759;28;21803;-68
2021/03/19 10:39:51;;;;;;;2.17;1.87;;;;;;;;;;5028903;28;20615;-68
2021/03/19 10:42:24;;;;;;;3.73;2.70;;;;;;;;;;5032485;28;20704;-68
2021/03/19 10:44:49;;;;;;;6.50;2.10;;;;;;;;;;5030975;28;20189;-69
2021/03/19 10:47:25;;;;;;;7.33;2.03;;;;;;;;;;5037700;28;20612;-67
2021/03/19 10:50:05;;;;;;;3.13;1.90;;;;;;;;;;5026726;28;20449;-68
2021/03/19 10:52:31;;;;;;;2.63;2.30;;;;;;;;;;5028309;28;20829;-67
2021/03/19 10:54:59;;;;;;;3.97;2.03;;;;;;;;;;5029110;28;20179;-68
2021/03/19 10:57:27;;;;;;;3.80;2.27;;;;;;;;;;5030203;28;20227;-68
2021/03/19 10:59:53;;;;;;;4.00;2.10;;;;;;;;;;5031334;28;20761;-68
2021/03/19 11:02:21;;;;;;;4.17;2.13;;;;;;;;;;5037790;28;20198;-67
2021/03/19 11:05:01;;;;;;;3.17;1.90;;;;;;;;;;5029946;28;20204;-68
2021/03/19 11:07:29;;;;;;;7.63;1.97;;;;;;;;;;5029516;28;20205;-68
2021/03/19 11:10:04;;;;;;;2.87;1.97;;;;;;;;;;5030129;28;20207;-67
2021/03/19 11:12:32;;;;;;;2.93;1.73;;;;;;;;;;5034187;28;20181;-67
2021/03/19 11:14:58;;;;;;;3.40;2.00;;;;;;;;;;5027165;28;20319;-66
2021/03/19 11:17:23;;;;;;;4.87;1.63;;;;;;;;;;5029844;28;20652;-68
2021/03/19 11:20:00;;;;;;;5.43;1.93;;;;;;;;;;5027703;28;20208;-66
2021/03/19 11:22:45;;;;;;;3.13;1.53;;;;;;;;;;5027797;28;20181;-67
2021/03/19 11:25:29;;;;;;;3.33;1.80;;;;;;;;;;5033916;28;20185;-68
2021/03/19 11:27:54;;;;;;;3.00;1.77;;;;;;;;;;5028909;28;20244;-67
2021/03/19 11:30:25;;;;;;;2.07;1.67;;;;;;;;;;5031728;28;20229;-68
2021/03/19 11:33:00;;;;;;;2.60;1.57;;;;;;;;;;5028656;28;20196;-68
2021/03/19 11:35:26;;;;;;;3.13;1.50;;;;;;;;;;5031884;28;20179;-67
2021/03/19 11:37:51;;;;;;;3.83;1.70;;;;;;;;;;5029816;28;20181;-67
2021/03/19 11:40:22;;;;;;;2.25;1.25;;;;;;;;;;5033688;28;20201;-68
2021/03/19 11:42:49;;;;;;;4.20;1.67;;;;;;;;;;5023279;28;20220;-68
2021/03/19 11:45:21;;;;;;;3.67;1.30;;;;;;;;;;5031205;28;20181;-68
2021/03/19 11:48:13;;;;;;;2.42;1.35;;;;;;;;;;5027407;28;20270;-67
2021/03/19 11:50:39;;;;;;;1.55;1.17;;;;;;;;;;5027195;28;20698;-68
2021/03/19 11:53:07;;;;;;;1.77;1.30;;;;;;;;;;5031347;28;20488;-68
2021/03/19 11:55:34;;;;;;;3.10;1.67;;;;;;;;;;5027075;28;20261;-67
2021/03/19 11:58:00;;;;;;;2.00;1.33;;;;;;;;;;5027876;28;20557;-68
2021/03/19 12:00:26;;;;;;;1.83;1.30;;;;;;;;;;5026127;28;20205;-67
2021/03/19 12:02:54;;;;;;;1.80;1.17;;;;;;;;;;5029605;28;20200;-67
2021/03/19 12:05:20;;;;;;;1.70;1.08;;;;;;;;;;5033003;28;20261;-67
2021/03/19 12:07:45;;;;;;;2.22;1.77;;;;;;;;;;5031984;28;20550;-68
2021/03/19 12:10:11;;;;;;;2.25;1.55;;;;;;;;;;5032224;28;20193;-66
2021/03/19 12:12:36;;;;;;;3.47;1.50;;;;;;;;;;5027742;28;20186;-68
2021/03/19 12:15:02;;;;;;;3.80;1.60;;;;;;;;;;5028534;28;20184;-68
2021/03/19 12:17:27;;;;;;;2.25;1.60;;;;;;;;;;5030587;28;20192;-68
2021/03/19 12:19:53;;;;;;;3.50;1.88;;;;;;;;;;5031736;28;20194;-67
2021/03/19 12:22:20;;;;;;;2.38;1.90;;;;;;;;;;5029771;28;20177;-67
2021/03/19 12:24:45;;;;;;;3.97;2.20;;;;;;;;;;5029420;28;20182;-69
2021/03/19 12:27:12;;;;;;;3.00;1.98;;;;;;;;;;5031089;28;20695;-69
2021/03/19 12:29:37;;;;;;;3.22;1.83;;;;;;;;;;5031315;28;20198;-67
2021/03/19 12:32:02;;;;;;;1.50;1.40;;;;;;;;;;5033350;28;20212;-67
2021/03/19 12:34:27;;;;;;;2.00;1.60;;;;;;;;;;5027348;28;20178;-68
2021/03/19 12:36:53;;;;;;;3.10;1.73;;;;;;;;;;5027341;28;20280;-67
2021/03/19 12:39:18;;;;;;;3.67;1.67;;;;;;;;;;5032797;28;20198;-67
2021/03/19 12:41:44;;;;;;;3.83;2.25;;;;;;;;;;5033694;28;20177;-67
2021/03/19 12:44:09;;;;;;;4.30;1.70;;;;;;;;;;5037487;28;20295;-68
2021/03/19 12:46:35;;;;;;;1.98;1.58;;;;;;;;;;5034199;28;20202;-67
2021/03/19 12:49:00;;;;;;;3.78;1.52;;;;;;;;;;5035995;28;20201;-67
2021/03/19 12:51:25;;;;;;;2.00;1.33;;;;;;;;;;5039488;28;20253;-68
2021/03/19 12:53:51;;;;;;;2.08;1.40;;;;;;;;;;5031085;28;20301;-68
2021/03/19 12:56:16;;;;;;;1.90;1.33;;;;;;;;;;5039001;28;20656;-68
2021/03/19 12:58:42;;;;;;;3.17;1.50;;;;;;;;;;5031525;28;20268;-67
2021/03/19 13:01:08;;;;;;;1.58;1.35;;;;;;;;;;5030547;28;20998;-68
2021/03/19 13:03:34;;;;;;;2.65;1.67;;;;;;;;;;5033707;28;20515;-68
2021/03/19 13:05:59;;;;;;;1.50;1.02;;;;;;;;;;5034462;28;20659;-67
2021/03/19 13:08:24;;;;;;;2.67;1.05;;;;;;;;;;5034363;28;20943;-66
2021/03/19 13:10:49;;;;;;;3.03;1.50;;;;;;;;;;5037818;28;20193;-69
2021/03/19 13:13:14;;;;;;;1.58;1.30;;;;;;;;;;5032772;28;20665;-67
2021/03/19 13:15:40;;;;;;;2.05;1.30;;;;;;;;;;5030525;28;20878;-67
2021/03/19 13:18:06;;;;;;;2.60;1.30;;;;;;;;;;5030819;28;20177;-67
2021/03/19 13:20:31;;;;;;;1.70;1.20;;;;;;;;;;5035538;28;20205;-67
2021/03/19 13:22:57;;;;;;;3.00;1.50;;;;;;;;;;5030466;28;20593;-65
2021/03/19 13:25:25;;;;;;;3.25;1.15;;;;;;;;;;5036944;28;20201;-68
2021/03/19 13:27:51;;;;;;;3.65;1.50;;;;;;;;;;5031407;28;20205;-67
2021/03/19 13:30:17;;;;;;;2.47;1.33;;;;;;;;;;5038849;28;20670;-66
2021/03/19 13:32:46;;;;;;;2.75;1.08;;;;;;;;;;5031742;28;20294;-68
2021/03/19 13:35:11;;;;;;;2.28;1.65;;;;;;;;;;5035523;28;20181;-68
2021/03/19 13:37:37;;;;;;;2.35;1.10;;;;;;;;;;5032794;28;20181;-68
2021/03/19 13:40:03;;;;;;;1.20;0.93;;;;;;;;;;5033292;28;20607;-68
2021/03/19 13:42:28;;;;;;;2.92;1.10;;;;;;;;;;5034561;28;20179;-68
2021/03/19 13:44:53;;;;;;;1.92;1.08;;;;;;;;;;5034008;28;20212;-68
2021/03/19 13:47:18;;;;;;;1.60;0.90;;;;;;;;;;5031800;28;20205;-67
2021/03/19 13:49:43;;;;;;;2.75;1.15;;;;;;;;;;5029149;28;20197;-67
2021/03/19 13:52:09;;;;;;;1.65;1.00;;;;;;;;;;5030429;28;20644;-67
2021/03/19 13:54:34;;;;;;;1.85;1.35;;;;;;;;;;5030417;28;20316;-68
2021/03/19 13:57:00;;;;;;;2.28;1.42;;;;;;;;;;5034288;28;20193;-67
2021/03/19 13:59:26;;;;;;;2.70;1.80;;;;;;;;;;5028349;28;20301;-67
2021/03/19 14:01:51;;;;;;;2.17;1.20;;;;;;;;;;5033389;28;20186;-67
2021/03/19 14:04:16;;;;;;;1.45;1.20;;;;;;;;;;5030834;28;20194;-67
2021/03/19 14:06:41;;;;;;;1.73;1.10;;;;;;;;;;5031013;28;20223;-67
2021/03/19 14:09:07;;;;;;;1.45;1.13;;;;;;;;;;5034136;28;20435;-66
2021/03/19 14:11:32;;;;;;;1.17;0.80;;;;;;;;;;5035518;28;20179;-67
2021/03/19 14:13:57;;;;;;;0.88;0.63;;;;;;;;;;5030041;28;20248;-66
2021/03/19 14:16:22;;;;;;;4.05;2.20;;;;;;;;;;5035004;28;20902;-67
2021/03/19 14:18:48;;;;;;;3.05;1.40;;;;;;;;;;5031828;28;20192;-66
2021/03/19 14:21:13;;;;;;;3.10;2.45;;;;;;;;;;5033842;28;20206;-66
2021/03/19 14:23:38;;;;;;;1.40;1.20;;;;;;;;;;5029860;28;20178;-68
2021/03/19 14:26:05;;;;;;;1.73;1.02;;;;;;;;;;5034354;28;20590;-66
2021/03/19 14:28:32;;;;;;;1.45;0.90;;;;;;;;;;5029660;28;20209;-65
2021/03/19 14:30:57;;;;;;;3.83;1.15;;;;;;;;;;5045643;28;20190;-66
2021/03/19 14:33:22;;;;;;;2.53;1.42;;;;;;;;;;5033372;28;20201;-65
2021/03/19 14:35:48;;;;;;;1.58;1.27;;;;;;;;;;5031820;28;20648;-67
2021/03/19 14:38:14;;;;;;;1.20;0.90;;;;;;;;;;5031152;28;20179;-67
2021/03/19 14:40:39;;;;;;;1.25;0.88;;;;;;;;;;5029648;28;20691;-67
2021/03/19 14:43:05;;;;;;;1.70;1.30;;;;;;;;;;5028388;28;20186;-66
2021/03/19 14:45:30;;;;;;;5.15;0.93;;;;;;;;;;5030618;28;20217;-67
2021/03/19 14:47:56;;;;;;;2.50;1.23;;;;;;;;;;5027548;28;20687;-66
2021/03/19 14:50:24;;;;;;;3.40;1.17;;;;;;;;;;5035394;28;20295;-67